Time;durP1;ratioP1;P1;durP2;ratioP2;P2;SDS_P1;SDS_P2;PMS_P1;PMS_P2;Temp;Humidity;BMP_temperature;BMP_pressure;BME280_temperature;BME280_humidity;BME280_pressure;Samples;Min_cycle;Max_cycle;Signal;HPM_P1;HPM_P2
2021/03/13 00:01:33;;;;;;;15.38;7.80;;;;;;;26.35;34.00;158078.16;1730981;82;21180;-68
2021/03/13 00:04:08;;;;;;;17.40;9.95;;;;;;;26.39;34.00;158088.80;1730993;81;21303;-69
2021/03/13 00:06:56;;;;;;;15.00;6.60;;;;;;;26.42;33.95;158096.78;1731293;81;21331;-70
2021/03/13 00:09:31;;;;;;;13.38;8.20;;;;;;;26.31;34.06;158067.50;1730672;81;21363;-69
2021/03/13 00:12:05;;;;;;;19.15;9.65;;;;;;;26.30;33.98;158066.20;1730854;81;21235;-69
2021/03/13 00:14:38;;;;;;;19.92;9.60;;;;;;;26.35;34.13;158078.16;1731091;82;21168;-70
2021/03/13 00:17:10;;;;;;;23.47;10.63;;;;;;;26.12;34.40;158018.34;1730559;81;21734;-69
2021/03/13 00:19:44;;;;;;;16.35;8.35;;;;;;;26.33;34.37;158072.83;1730667;81;21306;-69
2021/03/13 00:22:16;;;;;;;14.50;7.83;;;;;;;26.43;34.26;158099.44;1731386;81;22156;-69
2021/03/13 00:24:48;;;;;;;16.90;9.48;;;;;;;26.46;34.38;158108.73;1731075;81;21297;-69
2021/03/13 00:27:25;;;;;;;22.37;9.65;;;;;;;26.53;34.51;158126.00;1731207;82;21378;-69
2021/03/13 00:30:09;;;;;;;16.93;9.40;;;;;;;26.52;34.69;158123.34;1703850;81;21350;-69
2021/03/13 00:32:41;;;;;;;26.33;11.45;;;;;;;26.48;34.75;158112.75;1701517;82;21203;-69
2021/03/13 00:35:14;;;;;;;23.22;12.73;;;;;;;26.51;34.76;158122.05;1690685;85;21378;-69
2021/03/13 00:37:47;;;;;;;26.02;11.53;;;;;;;26.49;34.66;158115.41;1688359;85;21415;-69
2021/03/13 00:40:21;;;;;;;26.82;11.90;;;;;;;26.49;34.82;158115.41;1693157;83;21317;-71
2021/03/13 00:42:54;;;;;;;15.68;8.85;;;;;;;26.49;34.89;158115.41;1711851;81;21191;-70
2021/03/13 00:45:27;;;;;;;18.62;9.70;;;;;;;26.54;34.87;158131.34;1722811;83;21290;-70
2021/03/13 00:48:00;;;;;;;22.95;11.53;;;;;;;26.64;34.77;158157.91;1718598;83;21185;-70
2021/03/13 00:50:35;;;;;;;20.10;10.88;;;;;;;26.61;34.84;158149.97;1713072;83;21382;-69
2021/03/13 00:53:07;;;;;;;20.82;10.45;;;;;;;26.62;34.87;158151.27;1726646;83;21188;-69
2021/03/13 00:55:40;;;;;;;25.10;10.98;;;;;;;26.62;34.92;158151.27;1723001;83;21328;-71
2021/03/13 00:58:13;;;;;;;23.40;10.55;;;;;;;26.64;34.96;158157.91;1723097;83;21859;-70
2021/03/13 01:00:47;;;;;;;21.87;9.83;;;;;;;26.63;35.00;158153.94;1723031;81;21229;-70
2021/03/13 01:03:20;;;;;;;18.20;9.73;;;;;;;26.62;35.03;158152.58;1723089;83;21209;-69
2021/03/13 01:05:52;;;;;;;20.45;10.82;;;;;;;26.67;34.99;158165.89;1723026;83;21181;-69
2021/03/13 01:08:25;;;;;;;18.87;9.65;;;;;;;26.69;35.03;158171.20;1710184;83;21220;-70
2021/03/13 01:10:59;;;;;;;11.75;6.47;;;;;;;26.67;35.03;158165.89;1655217;86;21217;-69
2021/03/13 01:13:33;;;;;;;12.88;6.40;;;;;;;26.68;35.10;158167.19;1650314;87;21324;-69
2021/03/13 01:16:06;;;;;;;18.95;10.00;;;;;;;26.65;35.03;158160.56;1678463;85;21817;-69
2021/03/13 01:18:39;;;;;;;19.80;8.88;;;;;;;26.65;35.03;158160.56;1679307;85;21344;-69
2021/03/13 01:21:12;;;;;;;20.62;9.78;;;;;;;26.66;35.06;158161.92;1679476;85;21315;-69
2021/03/13 01:23:46;;;;;;;27.30;11.90;;;;;;;26.54;35.21;158130.03;1713889;84;21162;-68
2021/03/13 01:26:20;;;;;;;23.65;11.65;;;;;;;26.60;35.20;158147.30;1714928;83;21304;-68
2021/03/13 01:28:53;;;;;;;26.40;12.03;;;;;;;26.57;35.28;158139.31;1716984;83;21887;-69
2021/03/13 01:31:27;;;;;;;25.77;12.30;;;;;;;26.64;35.23;158157.91;1716858;83;21170;-69
2021/03/13 01:34:00;;;;;;;28.20;13.18;;;;;;;26.65;35.24;158159.25;1718064;83;21328;-69
2021/03/13 01:36:32;;;;;;;23.67;11.22;;;;;;;26.67;35.20;158165.89;1710082;83;21186;-68
2021/03/13 01:39:05;;;;;;;26.35;12.37;;;;;;;26.64;35.18;158157.91;1703431;84;21186;-68
2021/03/13 01:41:38;;;;;;;26.85;11.80;;;;;;;26.75;35.04;158185.83;1706562;83;21713;-68
2021/03/13 01:44:10;;;;;;;24.92;12.35;;;;;;;26.61;35.18;158149.97;1707904;83;21356;-69
2021/03/13 01:46:44;;;;;;;22.07;11.53;;;;;;;26.59;35.20;158143.28;1711010;83;21174;-68
2021/03/13 01:49:24;;;;;;;21.02;11.60;;;;;;;27.74;33.87;158450.50;1681825;83;21704;-68
2021/03/13 01:51:57;;;;;;;;;;;;;;;26.69;35.06;158169.86;1679022;85;21259;-69
2021/03/13 01:54:29;;;;;;;20.02;9.10;;;;;;;26.65;35.19;158159.25;1680113;84;20181;-69
2021/03/13 01:57:02;;;;;;;20.20;11.45;;;;;;;26.79;35.06;158196.47;1678315;85;21196;-71
2021/03/13 01:59:34;;;;;;;18.48;11.35;;;;;;;26.75;35.00;158185.83;1720344;83;21319;-70
2021/03/13 02:02:09;;;;;;;22.95;11.75;;;;;;;26.69;35.15;158169.86;1711849;83;21195;-69
2021/03/13 02:04:42;;;;;;;16.77;9.80;;;;;;;26.74;35.10;158184.47;1731110;82;21187;-70
2021/03/13 02:07:20;;;;;;;18.62;10.72;;;;;;;26.60;35.30;158147.30;1731024;83;21430;-71
2021/03/13 02:10:29;;;;;;;20.27;10.10;;;;;;;26.71;35.21;158175.17;1731081;83;21220;-69
2021/03/13 02:13:10;;;;;;;20.27;12.43;;;;;;;26.70;35.25;158172.52;1731197;83;21330;-70
2021/03/13 02:15:56;;;;;;;16.77;9.63;;;;;;;26.83;35.16;158207.08;1731024;83;21942;-69
2021/03/13 02:18:42;;;;;;;20.12;11.10;;;;;;;26.87;35.02;158219.03;1710457;82;21814;-69
2021/03/13 02:21:32;;;;;;;19.42;11.48;;;;;;;26.89;35.05;158224.36;1680779;85;21846;-69
2021/03/13 02:24:25;;;;;;;;;;;;;;;26.89;35.04;158224.36;1687567;83;21353;-69
2021/03/13 02:27:17;;;;;;;17.77;8.73;;;;;;;26.93;34.90;158233.66;1709035;83;20303;-69
2021/03/13 02:30:07;;;;;;;23.65;11.43;;;;;;;26.83;34.97;158208.44;1710380;83;21314;-69
2021/03/13 02:33:24;;;;;;;20.97;11.33;;;;;;;26.91;34.89;158228.33;1728413;82;21715;-70
2021/03/13 02:36:03;;;;;;;27.93;13.03;;;;;;;26.93;34.80;158235.00;1728188;82;21713;-69
2021/03/13 02:39:06;;;;;;;26.20;13.85;;;;;;;27.08;34.71;158273.59;1701042;82;21225;-70
2021/03/13 02:41:46;;;;;;;30.77;15.40;;;;;;;27.09;34.75;158276.25;1684493;83;21205;-68
2021/03/13 02:44:19;;;;;;;28.87;15.75;;;;;;;27.00;34.88;158253.59;1709672;83;21170;-69
2021/03/13 02:46:59;;;;;;;32.70;15.75;;;;;;;26.93;34.97;158233.66;1718851;83;21186;-69
2021/03/13 02:49:34;;;;;;;26.95;13.72;;;;;;;26.93;34.95;158235.00;1720020;83;21178;-69
2021/03/13 02:52:10;;;;;;;33.08;17.15;;;;;;;26.92;34.99;158232.34;1719717;83;21318;-69
2021/03/13 02:54:47;;;;;;;29.72;14.83;;;;;;;26.95;34.88;158240.33;1719959;83;21177;-70
2021/03/13 02:57:19;;;;;;;31.12;15.70;;;;;;;26.90;34.89;158227.02;1719451;83;21321;-69
2021/03/13 02:59:52;;;;;;;26.80;14.73;;;;;;;26.91;34.91;158229.69;1721501;83;21332;-69
2021/03/13 03:02:27;;;;;;;30.32;15.93;;;;;;;26.87;34.96;158217.72;1721318;83;21206;-69
2021/03/13 03:05:00;;;;;;;25.20;13.88;;;;;;;26.85;34.93;158212.41;1721205;83;21332;-69
2021/03/13 03:07:34;;;;;;;29.48;15.90;;;;;;;26.88;34.84;158220.39;1702398;83;21316;-70
2021/03/13 03:10:09;;;;;;;26.20;14.63;;;;;;;26.85;34.85;158213.70;1694268;84;21397;-70
2021/03/13 03:12:43;;;;;;;26.30;13.40;;;;;;;26.89;34.84;158223.05;1709286;84;21198;-69
2021/03/13 03:15:17;;;;;;;30.15;16.25;;;;;;;26.90;34.82;158225.72;1706602;82;21316;-69
2021/03/13 03:17:49;;;;;;;30.32;14.90;;;;;;;26.94;34.56;158237.67;1689615;84;21195;-72
2021/03/13 03:20:23;;;;;;;27.50;14.93;;;;;;;27.00;34.63;158252.28;1704690;83;21337;-70
2021/03/13 03:22:56;;;;;;;25.23;13.83;;;;;;;26.97;34.66;158244.30;1714159;84;21348;-70
2021/03/13 03:25:28;;;;;;;31.65;15.48;;;;;;;26.90;34.63;158225.72;1714087;84;21337;-70
2021/03/13 03:28:02;;;;;;;25.75;14.65;;;;;;;26.89;34.62;158223.05;1714022;84;21360;-70
2021/03/13 03:30:36;;;;;;;28.40;15.83;;;;;;;26.91;34.49;158229.69;1696126;83;21328;-70
2021/03/13 03:33:09;;;;;;;32.25;16.67;;;;;;;26.89;34.37;158223.05;1721429;83;21340;-71
2021/03/13 03:35:44;;;;;;;42.30;18.65;;;;;;;26.96;34.37;158243.00;1721091;83;21339;-70
2021/03/13 03:38:17;;;;;;;32.98;15.75;;;;;;;27.02;34.21;158258.97;1719077;83;21201;-70
2021/03/13 03:40:51;;;;;;;31.40;15.83;;;;;;;26.76;34.11;158189.80;1689983;83;21880;-70
2021/03/13 03:43:34;;;;;;;40.35;18.55;;;;;;;26.66;34.35;158161.92;1688834;83;21213;-70
2021/03/13 03:46:07;;;;;;;35.90;17.40;;;;;;;26.70;34.28;158172.52;1711884;83;21217;-70
2021/03/13 03:48:39;;;;;;;30.80;16.73;;;;;;;26.74;34.13;158184.47;1712217;84;21701;-69
2021/03/13 03:51:15;;;;;;;28.98;15.85;;;;;;;26.64;34.17;158157.91;1712758;83;21230;-70
2021/03/13 03:53:52;;;;;;;28.65;15.08;;;;;;;26.68;34.00;158167.19;1717921;83;21223;-69
2021/03/13 03:56:25;;;;;;;29.32;16.35;;;;;;;26.63;33.96;158153.94;1718123;83;21829;-70
2021/03/13 03:58:58;;;;;;;29.77;15.18;;;;;;;26.54;33.96;158131.34;1718206;83;21349;-72
2021/03/13 04:01:31;;;;;;;29.92;15.63;;;;;;;26.53;33.92;158128.67;1664391;85;21207;-69
2021/03/13 04:04:06;;;;;;;28.27;15.65;;;;;;;26.50;34.11;158119.38;1683486;85;21358;-70
2021/03/13 04:06:38;;;;;;;24.40;15.05;;;;;;;26.47;34.12;158110.09;1718086;83;21381;-70
2021/03/13 04:09:11;;;;;;;28.70;15.78;;;;;;;26.53;34.04;158128.67;1718140;83;21365;-70
2021/03/13 04:11:44;;;;;;;30.50;16.07;;;;;;;26.52;34.08;158123.34;1713587;83;21744;-70
2021/03/13 04:14:17;;;;;;;26.02;14.03;;;;;;;26.35;33.63;158078.16;1711769;83;21728;-70
2021/03/13 04:16:50;;;;;;;23.38;13.32;;;;;;;26.28;33.87;158060.88;1712063;84;21336;-69
2021/03/13 04:19:22;;;;;;;22.05;13.48;;;;;;;26.18;33.84;158032.95;1697528;83;21358;-70
2021/03/13 04:21:55;;;;;;;22.85;13.62;;;;;;;26.08;33.84;158006.41;1718004;83;21224;-70
2021/03/13 04:24:28;;;;;;;26.77;13.53;;;;;;;25.88;34.09;157954.59;1718088;83;21258;-69
2021/03/13 04:27:00;;;;;;;24.00;14.43;;;;;;;25.76;34.27;157922.67;1718301;83;21172;-69
2021/03/13 04:29:33;;;;;;;23.30;12.47;;;;;;;25.61;34.53;157881.52;1718258;83;21322;-69
2021/03/13 04:32:06;;;;;;;27.45;13.90;;;;;;;25.54;34.77;157862.94;1717910;83;21337;-69
2021/03/13 04:34:38;;;;;;;22.02;13.28;;;;;;;25.40;34.85;157824.45;1711415;83;21352;-68
2021/03/13 04:37:11;;;;;;;24.02;13.45;;;;;;;25.42;34.91;157831.08;1707533;84;21214;-68
2021/03/13 04:39:44;;;;;;;26.00;13.48;;;;;;;25.49;34.76;157848.34;1711725;83;21851;-69
2021/03/13 04:42:17;;;;;;;27.70;14.07;;;;;;;25.65;34.43;157892.16;1716319;83;21194;-70
2021/03/13 04:44:49;;;;;;;22.52;11.70;;;;;;;25.63;34.46;157886.83;1709383;83;21186;-68
2021/03/13 04:47:21;;;;;;;26.37;13.88;;;;;;;25.40;34.62;157824.45;1693444;83;21724;-69
2021/03/13 04:49:54;;;;;;;25.85;13.35;;;;;;;25.47;34.49;157843.03;1693580;83;21213;-70
2021/03/13 04:52:27;;;;;;;23.55;12.43;;;;;;;25.49;34.43;157848.34;1706554;83;21380;-70
2021/03/13 04:54:59;;;;;;;24.02;11.80;;;;;;;25.56;34.29;157868.27;1722413;83;21210;-69
2021/03/13 04:57:31;;;;;;;25.50;12.75;;;;;;;25.55;34.24;157865.61;1716420;83;21238;-69
2021/03/13 05:00:07;;;;;;;23.83;12.55;;;;;;;25.24;34.46;157783.27;1715526;83;21461;-73
2021/03/13 05:02:39;;;;;;;23.38;12.90;;;;;;;25.23;34.56;157779.30;1719692;82;21170;-73
2021/03/13 05:05:12;;;;;;;27.50;13.40;;;;;;;25.29;34.65;157796.56;1698849;82;21224;-75
2021/03/13 05:07:46;;;;;;;27.37;13.00;;;;;;;25.37;34.30;157817.78;1699562;82;21847;-69
2021/03/13 05:10:18;;;;;;;23.52;12.28;;;;;;;25.34;34.31;157808.50;1708096;82;21288;-70
2021/03/13 05:12:52;;;;;;;23.70;12.07;;;;;;;25.36;34.32;157815.13;1709171;82;21245;-77
2021/03/13 05:15:24;;;;;;;24.05;12.70;;;;;;;25.36;34.27;157815.13;1700925;82;21197;-76
2021/03/13 05:17:57;;;;;;;24.45;12.70;;;;;;;25.42;34.25;157829.73;1700159;82;21170;-72
2021/03/13 05:20:30;;;;;;;23.52;12.45;;;;;;;25.54;34.05;157862.94;1696102;83;21824;-75
2021/03/13 05:23:02;;;;;;;27.85;13.53;;;;;;;25.50;34.20;157852.31;1701299;82;21185;-72
2021/03/13 05:25:35;;;;;;;24.15;12.82;;;;;;;25.51;34.15;157854.97;1701006;82;21222;-76
2021/03/13 05:28:08;;;;;;;20.40;11.18;;;;;;;25.67;33.98;157897.47;1701319;82;21214;-73
2021/03/13 05:30:41;;;;;;;24.20;13.75;;;;;;;25.58;34.01;157873.53;1700382;83;21890;-70
2021/03/13 05:33:14;;;;;;;25.27;12.75;;;;;;;25.61;34.02;157881.52;1697914;82;21715;-74
2021/03/13 05:35:46;;;;;;;25.27;11.90;;;;;;;25.36;34.38;157815.13;1695774;82;21173;-71
2021/03/13 05:38:19;;;;;;;21.25;11.78;;;;;;;25.25;34.44;157784.63;1696366;82;21276;-71
2021/03/13 05:40:51;;;;;;;23.40;12.30;;;;;;;25.33;34.36;157805.84;1700347;82;21798;-73
2021/03/13 05:43:24;;;;;;;23.73;12.28;;;;;;;25.23;34.43;157780.61;1711886;82;21231;-72
2021/03/13 05:45:56;;;;;;;22.20;11.53;;;;;;;25.20;34.50;157771.33;1721432;83;21208;-77
2021/03/13 05:48:30;;;;;;;22.45;11.95;;;;;;;25.26;34.37;157788.59;1721295;83;21310;-74
2021/03/13 05:51:03;;;;;;;25.05;12.28;;;;;;;25.31;34.27;157801.87;1700011;83;21192;-72
2021/03/13 05:53:36;;;;;;;32.45;14.78;;;;;;;25.31;34.29;157801.87;1699940;83;21690;-73
2021/03/13 05:56:10;;;;;;;23.15;11.53;;;;;;;25.32;34.23;157803.19;1712940;83;21196;-73
2021/03/13 05:58:42;;;;;;;24.77;11.60;;;;;;;25.53;33.93;157860.28;1731036;83;21187;-74
2021/03/13 06:01:15;;;;;;;25.70;13.00;;;;;;;25.42;34.02;157831.08;1719895;83;21351;-75
2021/03/13 06:03:47;;;;;;;24.23;12.33;;;;;;;25.12;34.47;157751.41;1679158;83;21370;-73
2021/03/13 06:06:21;;;;;;;26.15;13.30;;;;;;;25.16;34.53;157762.05;1722779;83;21302;-71
2021/03/13 06:08:55;;;;;;;22.95;12.60;;;;;;;25.12;34.57;157751.41;1728190;83;21196;-70
2021/03/13 06:11:29;;;;;;;21.90;11.15;;;;;;;25.15;34.53;157758.08;1728544;83;21239;-70
2021/03/13 06:14:01;;;;;;;24.87;12.70;;;;;;;25.31;34.49;157800.53;1719405;83;21322;-69
2021/03/13 06:16:33;;;;;;;23.95;13.40;;;;;;;25.53;34.26;157860.28;1731044;83;21207;-69
2021/03/13 06:19:06;;;;;;;24.23;12.23;;;;;;;25.49;34.34;157848.34;1728686;83;21152;-70
2021/03/13 06:21:40;;;;;;;21.17;12.03;;;;;;;25.39;34.58;157821.81;1716406;83;21243;-70
2021/03/13 06:24:32;;;;;;;24.23;12.28;;;;;;;25.75;34.44;157918.70;1723780;82;21362;-69
2021/03/13 06:27:01;;;;;;;23.45;11.60;;;;;;;25.89;34.48;157957.25;1725034;83;21378;-71
2021/03/13 06:29:34;;;;;;;30.10;13.13;;;;;;;26.25;34.57;158052.89;1730938;83;21845;-71
2021/03/13 06:32:12;;;;;;;25.82;12.63;;;;;;;26.36;34.71;158082.13;1690057;84;21317;-69
2021/03/13 06:34:47;;;;;;;28.40;12.77;;;;;;;26.61;34.56;158148.61;1676784;85;21853;-68
2021/03/13 06:37:28;;;;;;;24.65;12.37;;;;;;;26.78;34.54;158195.13;1694351;83;21806;-73
2021/03/13 06:40:01;;;;;;;26.85;13.45;;;;;;;27.01;34.51;158254.95;1730759;83;21212;-68
2021/03/13 06:42:33;;;;;;;25.77;12.58;;;;;;;27.18;34.70;158300.17;1699853;83;21318;-68
2021/03/13 06:45:07;;;;;;;22.13;12.30;;;;;;;27.30;34.99;158333.44;1702854;83;21382;-72
2021/03/13 06:47:42;;;;;;;22.85;12.13;;;;;;;27.22;35.38;158310.81;1713111;83;21357;-68
2021/03/13 06:50:24;;;;;;;23.87;11.68;;;;;;;27.33;35.16;158340.06;1728703;83;21514;-70
2021/03/13 06:53:10;;;;;;;21.75;11.85;;;;;;;27.34;35.25;158344.03;1707076;82;21263;-67
2021/03/13 06:55:43;;;;;;;24.25;12.47;;;;;;;27.48;35.07;158381.28;1677406;85;21239;-66
2021/03/13 06:58:15;;;;;;;23.67;11.88;;;;;;;27.78;35.01;158461.09;1680145;84;21562;-67
2021/03/13 07:00:48;;;;;;;22.10;11.12;;;;;;;27.93;35.06;158501.02;1701514;83;21239;-71
2021/03/13 07:03:20;;;;;;;23.35;11.50;;;;;;;28.08;35.33;158540.94;1728875;83;21350;-70
2021/03/13 07:05:52;;;;;;;21.27;11.88;;;;;;;28.10;35.00;158547.58;1729520;81;21326;-68
2021/03/13 07:08:36;;;;;;;21.37;11.53;;;;;;;28.41;35.24;158628.78;1731441;82;21834;-68
2021/03/13 07:11:13;;;;;;;20.97;11.97;;;;;;;28.43;34.94;158635.44;1730608;82;21845;-69
2021/03/13 07:13:56;;;;;;;22.17;11.85;;;;;;;28.56;35.24;158670.03;1723899;81;21180;-68
2021/03/13 07:16:40;;;;;;;20.17;11.60;;;;;;;28.55;34.77;158668.72;1730676;81;21200;-71
2021/03/13 07:19:22;;;;;;;23.25;10.88;;;;;;;28.69;35.04;158704.64;1731160;83;21219;-71
2021/03/13 07:22:03;;;;;;;26.37;11.48;;;;;;;28.90;34.79;158761.94;1698436;81;21287;-71
2021/03/13 07:24:45;;;;;;;20.90;11.38;;;;;;;29.15;34.55;158827.16;1732401;81;21173;-74
2021/03/13 07:27:41;;;;;;;21.62;11.00;;;;;;;29.32;34.69;158872.44;1711611;81;21196;-74
2021/03/13 07:30:28;;;;;;;20.97;10.60;;;;;;;29.69;34.55;158973.67;1702433;81;22300;-75
2021/03/13 07:33:14;;;;;;;21.55;10.90;;;;;;;30.00;34.01;159056.34;1706884;81;21212;-78
2021/03/13 07:36:04;;;;;;;20.40;10.50;;;;;;;29.92;34.02;159033.63;1703129;83;21856;-74
2021/03/13 07:38:43;;;;;;;18.50;10.78;;;;;;;30.55;33.69;159204.31;1731704;82;21168;-76
2021/03/13 07:41:37;;;;;;;;;;;;;;;30.79;33.51;159268.23;1713919;81;21219;-78
2021/03/13 07:44:11;;;;;;;21.27;10.85;;;;;;;31.02;32.95;159328.25;1723147;81;20184;-78
2021/03/13 07:46:44;;;;;;;20.32;10.53;;;;;;;31.20;32.81;159376.28;1721994;81;21415;-86
2021/03/13 07:49:17;;;;;;;21.95;10.78;;;;;;;31.22;33.09;159382.98;1714991;81;21225;-73
2021/03/13 07:51:59;;;;;;;18.12;10.53;;;;;;;31.31;32.98;159406.97;1709278;81;21216;-74
2021/03/13 07:54:52;;;;;;;18.73;10.48;;;;;;;31.29;31.96;159402.98;1691394;83;21233;-75
2021/03/13 07:57:27;;;;;;;18.80;10.98;;;;;;;31.23;32.29;159385.66;1699868;81;21233;-77
2021/03/13 08:00:03;;;;;;;15.70;10.05;;;;;;;30.72;32.11;159248.28;1704544;82;21391;-77
2021/03/13 08:02:39;;;;;;;18.95;10.72;;;;;;;30.58;32.07;159212.27;1694017;81;21225;-75
2021/03/13 08:05:19;;;;;;;17.73;10.25;;;;;;;30.80;32.06;159269.59;1697981;81;21859;-76
2021/03/13 08:08:04;;;;;;;22.32;11.22;;;;;;;31.01;32.22;159326.94;1695098;81;21348;-75
2021/03/13 08:10:54;;;;;;;17.90;11.05;;;;;;;31.34;32.45;159414.98;1700579;81;21364;-78
2021/03/13 08:13:40;;;;;;;19.32;11.10;;;;;;;31.56;32.28;159473.70;1700634;81;21455;-74
2021/03/13 08:16:23;;;;;;;17.48;10.48;;;;;;;31.58;31.08;159480.36;1694297;81;21367;-73
2021/03/13 08:18:54;;;;;;;20.27;10.80;;;;;;;31.24;30.38;159388.33;1701103;82;21210;-77
2021/03/13 08:21:41;;;;;;;18.87;11.20;;;;;;;31.12;30.44;159354.97;1705665;81;21300;-78
2021/03/13 08:24:18;;;;;;;20.10;11.50;;;;;;;30.98;30.42;159318.92;1713654;82;21481;-75
2021/03/13 08:27:01;;;;;;;19.10;10.32;;;;;;;30.88;30.13;159292.28;1708090;83;21199;-75
2021/03/13 08:29:52;;;;;;;17.52;10.93;;;;;;;30.80;30.41;159269.59;1708257;83;21181;-77
2021/03/13 08:33:02;;;;;;;17.02;9.85;;;;;;;30.85;30.37;159284.27;1705695;83;21196;-79
2021/03/13 08:35:42;;;;;;;17.73;10.70;;;;;;;31.05;30.26;159336.31;1704974;82;21849;-78
2021/03/13 08:38:17;;;;;;;16.00;9.70;;;;;;;31.10;30.67;159349.62;1704454;83;21183;-80
2021/03/13 08:40:52;;;;;;;19.15;10.93;;;;;;;31.28;30.45;159397.64;1680178;82;21225;-77
2021/03/13 08:43:40;;;;;;;14.15;8.80;;;;;;;31.24;29.96;159386.97;1690848;83;21336;-75
2021/03/13 08:46:54;;;;;;;18.20;10.48;;;;;;;31.15;30.07;159362.97;1687147;83;21241;-81
2021/03/13 08:49:39;;;;;;;17.57;10.25;;;;;;;30.99;30.08;159320.23;1690038;83;21190;-76
2021/03/13 08:52:15;;;;;;;15.32;9.85;;;;;;;31.00;30.02;159322.91;1689850;83;21347;-77
2021/03/13 08:54:48;;;;;;;16.32;10.10;;;;;;;31.10;30.30;159349.62;1692019;83;21360;-74
2021/03/13 08:57:31;;;;;;;18.20;9.70;;;;;;;31.15;30.27;159362.97;1689321;82;21745;-78
2021/03/13 09:00:05;;;;;;;13.68;9.70;;;;;;;31.09;30.18;159348.31;1691056;82;21404;-80
2021/03/13 09:02:41;;;;;;;18.02;10.38;;;;;;;31.04;30.21;159333.64;1689272;82;21340;-80
2021/03/13 09:05:21;;;;;;;16.45;10.93;;;;;;;30.98;30.08;159318.92;1689083;83;21206;-75
2021/03/13 09:07:55;;;;;;;16.57;9.50;;;;;;;31.03;29.99;159330.97;1693985;83;21423;-79
2021/03/13 09:10:29;;;;;;;15.60;9.45;;;;;;;30.90;30.04;159296.25;1690131;82;21371;-73
2021/03/13 09:13:02;;;;;;;16.40;9.33;;;;;;;31.04;30.19;159333.64;1689936;82;22207;-76
2021/03/13 09:15:34;;;;;;;17.95;10.85;;;;;;;31.01;29.97;159326.94;1689791;82;21367;-78
2021/03/13 09:18:07;;;;;;;14.73;9.90;;;;;;;30.51;30.33;159192.27;1690164;83;21721;-78
2021/03/13 09:20:41;;;;;;;16.05;10.20;;;;;;;30.13;30.08;159089.62;1691966;83;21324;-75
2021/03/13 09:23:14;;;;;;;16.45;9.68;;;;;;;29.83;30.65;159010.97;1695115;82;21248;-73
2021/03/13 09:25:46;;;;;;;14.93;9.98;;;;;;;29.72;30.65;158980.36;1703385;82;21776;-74
2021/03/13 09:28:19;;;;;;;14.07;9.40;;;;;;;29.64;30.97;158960.38;1690098;82;21404;-74
2021/03/13 09:30:52;;;;;;;16.15;10.25;;;;;;;29.85;31.11;159016.31;1691733;82;21392;-77
2021/03/13 09:33:24;;;;;;;17.15;10.48;;;;;;;29.92;31.01;159033.63;1690111;82;21382;-75
2021/03/13 09:36:10;;;;;;;16.23;10.20;;;;;;;29.93;30.76;159037.61;1689697;82;21217;-77
2021/03/13 09:38:58;;;;;;;19.82;10.43;;;;;;;29.82;31.03;159008.30;1689770;82;21355;-72
2021/03/13 09:41:30;;;;;;;17.27;10.28;;;;;;;29.47;31.24;158913.77;1690038;82;21428;-77
2021/03/13 09:44:20;;;;;;;15.15;9.65;;;;;;;29.60;30.91;158949.70;1698578;82;21320;-80
2021/03/13 09:50:29;;;;;;;20.25;10.93;;;;;;;29.43;30.99;158903.09;1717325;81;21377;-75
2021/03/13 09:53:31;;;;;;;17.67;11.22;;;;;;;29.39;31.31;158892.47;1710396;81;21349;-75
2021/03/13 09:56:35;;;;;;;16.87;9.50;;;;;;;29.56;31.15;158937.72;1713714;81;21814;-77
2021/03/13 09:59:08;;;;;;;19.40;11.20;;;;;;;29.58;30.87;158943.06;1701431;82;21335;-78
2021/03/13 10:01:44;;;;;;;18.12;10.40;;;;;;;29.65;31.14;158961.69;1695177;82;21165;-77
2021/03/13 10:07:24;;;;;;;18.85;11.35;;;;;;;30.25;30.83;159121.59;1695375;82;21213;-75
2021/03/13 10:10:32;;;;;;;21.00;11.48;;;;;;;30.37;30.35;159154.94;1690051;84;21363;-76
2021/03/13 10:13:08;;;;;;;18.37;11.15;;;;;;;30.74;30.51;159253.58;1713992;82;21217;-77
2021/03/13 10:15:40;;;;;;;17.70;10.43;;;;;;;30.82;30.49;159276.25;1699999;82;21366;-74
2021/03/13 10:18:16;;;;;;;18.67;10.82;;;;;;;31.10;30.76;159349.62;1693671;82;21228;-76
2021/03/13 10:21:10;;;;;;;19.25;10.82;;;;;;;31.23;30.09;159385.66;1696566;82;21354;-76
2021/03/13 10:27:21;;;;;;;19.05;11.03;;;;;;;32.43;29.69;159708.55;1695668;82;21212;-78
2021/03/13 10:29:56;;;;;;;19.50;10.45;;;;;;;32.77;29.61;159798.05;1676908;82;21319;-77
2021/03/13 10:32:32;;;;;;;19.15;11.08;;;;;;;33.51;29.90;159997.03;1697321;82;21388;-75
2021/03/13 10:35:19;;;;;;;17.20;10.18;;;;;;;34.34;29.03;160221.59;1690961;82;21409;-77
2021/03/13 10:37:59;;;;;;;15.55;10.45;;;;;;;34.65;28.27;160303.17;1702210;82;21354;-75
2021/03/13 10:40:44;;;;;;;18.02;10.85;;;;;;;35.13;28.19;160432.88;1699524;82;21346;-76
2021/03/13 10:43:38;;;;;;;16.70;10.55;;;;;;;35.17;27.48;160444.91;1694129;82;21374;-77
2021/03/13 10:46:16;;;;;;;17.87;10.32;;;;;;;34.78;27.94;160339.25;1691614;82;21201;-77
2021/03/13 10:48:57;;;;;;;17.85;10.65;;;;;;;34.46;27.78;160253.66;1700003;82;21596;-80
2021/03/13 10:51:35;;;;;;;18.62;10.60;;;;;;;34.14;28.44;160168.09;1704116;82;21326;-77
2021/03/13 10:54:31;;;;;;;19.87;11.93;;;;;;;34.03;28.36;160137.34;1705044;82;21197;-75
2021/03/13 10:57:09;;;;;;;15.90;10.48;;;;;;;34.75;28.89;160329.91;1699993;82;21316;-78
2021/03/13 10:59:42;;;;;;;16.73;11.03;;;;;;;36.53;27.95;160808.91;1704667;82;21743;-76
2021/03/13 11:02:15;;;;;;;16.10;10.48;;;;;;;38.14;27.26;161242.91;1702337;82;21194;-77
2021/03/13 11:04:47;;;;;;;17.67;10.40;;;;;;;39.08;27.03;161496.39;1694182;82;21324;-77
2021/03/13 11:07:21;;;;;;;16.87;10.88;;;;;;;39.61;26.88;161638.53;1703753;81;21240;-75
2021/03/13 11:09:53;;;;;;;15.10;10.15;;;;;;;40.71;27.99;161936.47;1706271;82;21165;-75
2021/03/13 11:12:25;;;;;;;16.73;10.88;;;;;;;41.61;26.80;162178.23;1708662;82;21201;-76
2021/03/13 11:14:57;;;;;;;16.50;10.90;;;;;;;42.02;25.98;162291.06;1701241;82;21742;-76
2021/03/13 11:17:30;;;;;;;16.17;10.55;;;;;;;42.00;24.70;162285.75;1719446;82;21236;-79
2021/03/13 11:20:03;;;;;;;16.73;10.72;;;;;;;41.87;25.62;162249.39;1699818;82;21226;-75
2021/03/13 11:22:35;;;;;;;14.10;10.85;;;;;;;41.98;25.67;162280.36;1706917;82;21806;-74
2021/03/13 11:25:09;;;;;;;16.57;10.65;;;;;;;41.92;25.11;162262.84;1705680;82;21213;-78
2021/03/13 11:27:41;;;;;;;13.32;9.95;;;;;;;41.88;25.04;162250.77;1699461;82;21359;-78
2021/03/13 11:30:16;;;;;;;15.00;10.53;;;;;;;42.30;24.97;162366.31;1699288;82;21166;-82
2021/03/13 11:32:49;;;;;;;16.55;11.38;;;;;;;42.59;24.42;162442.92;1705269;82;21712;-77
2021/03/13 11:35:23;;;;;;;15.32;11.08;;;;;;;42.46;24.04;162409.36;1700388;83;21181;-76
2021/03/13 11:37:56;;;;;;;17.27;10.58;;;;;;;42.30;24.76;162366.31;1703156;82;21320;-78
2021/03/13 11:40:28;;;;;;;15.35;11.05;;;;;;;42.10;26.16;162312.59;1707528;82;21201;-78
2021/03/13 11:43:00;;;;;;;17.02;11.35;;;;;;;42.42;24.60;162398.59;1699317;82;21193;-81
2021/03/13 11:45:33;;;;;;;20.72;12.07;;;;;;;42.21;24.32;162340.77;1700916;82;21190;-79
2021/03/13 11:48:07;;;;;;;15.70;11.70;;;;;;;42.22;25.54;162343.47;1709820;81;21231;-79
2021/03/13 11:50:39;;;;;;;17.77;11.43;;;;;;;42.61;24.26;162449.63;1717254;83;21235;-82
2021/03/13 11:53:12;;;;;;;19.73;11.60;;;;;;;42.83;25.46;162507.47;1714510;82;21323;-80
2021/03/13 11:55:45;;;;;;;17.30;10.18;;;;;;;43.08;25.06;162577.36;1709332;83;21219;-82
2021/03/13 11:58:17;;;;;;;17.82;11.10;;;;;;;43.03;24.57;162563.91;1709516;82;21765;-78
2021/03/13 12:00:51;;;;;;;17.95;10.93;;;;;;;42.74;24.07;162483.30;1702593;83;21223;-77
2021/03/13 12:03:24;;;;;;;16.95;11.55;;;;;;;42.36;24.75;162382.45;1705121;82;21255;-83
2021/03/13 12:05:56;;;;;;;15.00;10.38;;;;;;;42.06;24.67;162301.83;1710230;82;21189;-77